Time;durP1;ratioP1;P1;durP2;ratioP2;P2;SDS_P1;SDS_P2;PMS_P1;PMS_P2;Temp;Humidity;BMP_temperature;BMP_pressure;BME280_temperature;BME280_humidity;BME280_pressure;Samples;Min_cycle;Max_cycle;Signal;HPM_P1;HPM_P2
2023/09/10 00:01:11;;;;;;;24.05;11.93;;;;;;;-141.50;100.00;63355.56;5029904;28;20045;-78
2023/09/10 00:03:38;;;;;;;19.55;11.13;;;;;;;-141.50;100.00;63355.56;5064887;28;20387;-79
2023/09/10 00:06:06;;;;;;;18.30;11.13;;;;;;;-141.50;100.00;63355.56;5065491;28;20041;-78
2023/09/10 00:08:34;;;;;;;19.25;10.95;;;;;;;-141.50;100.00;63355.56;5055860;28;20274;-78
2023/09/10 00:11:02;;;;;;;18.48;10.95;;;;;;;-141.50;100.00;63355.56;5022567;28;21216;-78
2023/09/10 00:13:28;;;;;;;19.25;11.15;;;;;;;-141.50;100.00;63355.56;5057874;28;20059;-78
2023/09/10 00:15:56;;;;;;;20.83;12.07;;;;;;;-141.50;100.00;63355.56;5061151;28;20049;-78
2023/09/10 00:18:23;;;;;;;22.40;12.05;;;;;;;-141.50;100.00;63355.56;5048301;28;20072;-79
2023/09/10 00:20:52;;;;;;;23.13;11.98;;;;;;;-141.50;100.00;63355.56;5044203;28;20531;-80
2023/09/10 00:23:20;;;;;;;22.45;11.60;;;;;;;-141.50;100.00;63355.56;5058741;28;20045;-78
2023/09/10 00:25:47;;;;;;;21.13;11.70;;;;;;;-141.50;100.00;63355.56;5042067;28;20106;-79
2023/09/10 00:28:14;;;;;;;19.50;11.48;;;;;;;-141.50;100.00;63355.56;5043042;28;20049;-78
2023/09/10 00:30:41;;;;;;;20.95;11.30;;;;;;;-141.50;100.00;63355.56;5034740;28;20096;-79
2023/09/10 00:33:08;;;;;;;21.15;11.27;;;;;;;-141.50;100.00;63355.56;5046553;28;20056;-77
2023/09/10 00:35:35;;;;;;;19.90;11.05;;;;;;;-141.50;100.00;63355.56;5065288;28;20064;-78
2023/09/10 00:38:03;;;;;;;21.17;10.57;;;;;;;-141.50;100.00;63355.56;5045905;28;20056;-78
2023/09/10 00:40:30;;;;;;;18.40;10.52;;;;;;;-141.50;100.00;63355.56;5061158;28;20056;-80
2023/09/10 00:42:58;;;;;;;19.88;10.13;;;;;;;-141.50;100.00;63355.56;5061726;28;20045;-79
2023/09/10 00:45:25;;;;;;;19.17;10.45;;;;;;;-141.50;100.00;63355.56;5045625;28;20048;-79
2023/09/10 00:47:53;;;;;;;21.60;10.88;;;;;;;-141.50;100.00;63355.56;5030185;28;20041;-78
2023/09/10 00:50:20;;;;;;;21.13;10.93;;;;;;;-141.50;100.00;63355.56;5061260;28;20036;-78
2023/09/10 00:52:52;;;;;;;17.60;10.38;;;;;;;-141.50;100.00;63355.56;5040925;28;20075;-79
2023/09/10 00:55:22;;;;;;;16.98;10.18;;;;;;;-141.50;100.00;63355.56;5039891;28;20045;-79
2023/09/10 00:57:50;;;;;;;16.52;10.15;;;;;;;-141.50;100.00;63355.56;5038183;28;20060;-80
2023/09/10 01:00:19;;;;;;;16.80;9.77;;;;;;;-141.50;100.00;63355.56;5045150;28;20040;-79
2023/09/10 01:02:48;;;;;;;16.45;9.57;;;;;;;-141.50;100.00;63355.56;5060132;28;20060;-79
2023/09/10 01:05:17;;;;;;;16.65;9.45;;;;;;;-141.50;100.00;63355.56;5015481;28;20041;-79
2023/09/10 01:07:45;;;;;;;15.15;8.85;;;;;;;-141.50;100.00;63355.56;5061062;28;20045;-78
2023/09/10 01:10:12;;;;;;;17.75;10.00;;;;;;;-141.50;100.00;63355.56;5028598;28;20041;-79
2023/09/10 01:12:54;;;;;;;17.27;9.82;;;;;;;-141.50;100.00;63355.56;5044152;28;20144;-78
2023/09/10 01:15:32;;;;;;;16.20;10.05;;;;;;;-141.50;100.00;63355.56;5021607;28;20068;-79
2023/09/10 01:18:05;;;;;;;17.52;9.57;;;;;;;-141.50;100.00;63355.56;5053458;28;20041;-80
2023/09/10 01:20:32;;;;;;;15.15;9.35;;;;;;;-141.50;100.00;63355.56;5036599;28;20102;-80
2023/09/10 01:23:07;;;;;;;17.55;9.95;;;;;;;-141.50;100.00;63355.56;5037503;28;20093;-80
2023/09/10 01:25:35;;;;;;;16.67;9.13;;;;;;;-141.50;100.00;63355.56;5062572;28;20048;-79
2023/09/10 01:28:03;;;;;;;17.08;9.85;;;;;;;-141.50;100.00;63355.56;5062145;28;20133;-79
2023/09/10 01:30:31;;;;;;;20.27;10.07;;;;;;;-141.50;100.00;63355.56;5045527;28;20045;-79
2023/09/10 01:33:41;;;;;;;18.40;10.10;;;;;;;-141.50;100.00;63355.56;5032034;28;20072;-79
2023/09/10 01:36:14;;;;;;;15.13;8.73;;;;;;;-141.50;100.00;63355.56;5042638;28;20029;-80
2023/09/10 01:38:47;;;;;;;16.85;10.30;;;;;;;-141.50;100.00;63355.56;5048552;28;20041;-78
2023/09/10 01:41:16;;;;;;;17.45;9.15;;;;;;;-141.50;100.00;63355.56;5041944;28;20140;-79
2023/09/10 01:43:44;;;;;;;15.90;9.45;;;;;;;-141.50;100.00;63355.56;5066151;28;20032;-79
2023/09/10 01:46:12;;;;;;;15.55;8.93;;;;;;;-141.50;100.00;63355.56;5048950;28;20075;-79
2023/09/10 01:48:39;;;;;;;14.20;9.05;;;;;;;-141.50;100.00;63355.56;5067632;28;20049;-78
2023/09/10 01:51:07;;;;;;;15.93;9.20;;;;;;;-141.50;100.00;63355.56;5047608;28;20087;-79
2023/09/10 01:53:34;;;;;;;16.40;9.15;;;;;;;-141.50;100.00;63355.56;5047863;28;20049;-78
2023/09/10 01:56:01;;;;;;;15.02;9.23;;;;;;;-141.50;100.00;63355.56;5066207;28;20072;-78
2023/09/10 01:58:28;;;;;;;16.23;9.75;;;;;;;-141.50;100.00;63355.56;5032890;28;20427;-78
2023/09/10 02:00:55;;;;;;;15.25;8.95;;;;;;;-141.50;100.00;63355.56;5047445;28;20033;-79
2023/09/10 02:03:21;;;;;;;16.05;9.10;;;;;;;-141.50;100.00;63355.56;5032087;28;20060;-78
2023/09/10 02:05:48;;;;;;;14.77;8.77;;;;;;;-141.50;100.00;63355.56;5064514;28;20044;-79
2023/09/10 02:08:15;;;;;;;16.33;9.25;;;;;;;-141.50;100.00;63355.56;5046927;28;20079;-79
2023/09/10 02:10:43;;;;;;;15.82;9.02;;;;;;;-141.50;100.00;63355.56;5046860;28;20056;-78
2023/09/10 02:13:10;;;;;;;16.88;8.85;;;;;;;-141.50;100.00;63355.56;5070138;28;20037;-79
2023/09/10 02:15:37;;;;;;;15.80;8.93;;;;;;;-141.50;100.00;63355.56;5042576;28;20033;-78
2023/09/10 02:18:04;;;;;;;14.85;9.23;;;;;;;-141.50;100.00;63355.56;5046073;28;20135;-79
2023/09/10 02:20:35;;;;;;;17.30;8.32;;;;;;;-141.50;100.00;63355.56;5029951;28;20503;-79
2023/09/10 02:23:03;;;;;;;14.30;8.57;;;;;;;-141.50;100.00;63355.56;5040458;28;20534;-79
2023/09/10 02:25:32;;;;;;;13.45;8.50;;;;;;;-141.50;100.00;63355.56;5042107;28;20442;-79
2023/09/10 02:28:01;;;;;;;14.10;8.77;;;;;;;-141.50;100.00;63355.56;5032626;28;20178;-78
2023/09/10 02:30:28;;;;;;;15.02;8.68;;;;;;;-141.50;100.00;63355.56;5045414;28;20045;-78
2023/09/10 02:32:55;;;;;;;13.93;7.90;;;;;;;-141.50;100.00;63355.56;5061607;28;20061;-79
2023/09/10 02:35:23;;;;;;;14.63;8.35;;;;;;;-141.50;100.00;63355.56;5062528;28;20053;-78
2023/09/10 02:37:50;;;;;;;14.98;8.25;;;;;;;-141.50;100.00;63355.56;5051965;28;20049;-78
2023/09/10 02:40:17;;;;;;;12.80;7.95;;;;;;;-141.50;100.00;63355.56;5062483;28;20104;-79
2023/09/10 02:42:43;;;;;;;13.80;7.80;;;;;;;-141.50;100.00;63355.56;5058529;28;26010;-79
2023/09/10 02:45:12;;;;;;;12.77;7.70;;;;;;;-141.50;100.00;63355.56;5063562;28;20049;-79
2023/09/10 02:47:38;;;;;;;11.55;7.28;;;;;;;-141.50;100.00;63355.56;5045705;28;20268;-79
2023/09/10 02:50:06;;;;;;;12.98;7.85;;;;;;;-141.50;100.00;63355.56;5040461;28;20080;-79
2023/09/10 02:52:32;;;;;;;14.30;8.13;;;;;;;-141.50;100.00;63355.56;5064700;28;20044;-79
2023/09/10 02:54:59;;;;;;;14.55;7.75;;;;;;;-141.50;100.00;63355.56;5029789;28;20154;-79
2023/09/10 02:57:26;;;;;;;13.52;7.72;;;;;;;-141.50;100.00;63355.56;5063971;28;20045;-78
2023/09/10 02:59:53;;;;;;;12.90;7.22;;;;;;;-141.50;100.00;63355.56;5029980;28;20045;-79
2023/09/10 03:02:22;;;;;;;13.70;7.68;;;;;;;-141.50;100.00;63355.56;5042154;28;20050;-80
2023/09/10 03:04:50;;;;;;;13.70;7.68;;;;;;;-141.50;100.00;63355.56;5045876;28;20056;-79
2023/09/10 03:07:17;;;;;;;13.05;7.57;;;;;;;-141.50;100.00;63355.56;5045265;28;20049;-79
2023/09/10 03:09:44;;;;;;;12.35;7.50;;;;;;;-141.50;100.00;63355.56;5044601;28;20041;-79
2023/09/10 03:12:23;;;;;;;12.55;6.93;;;;;;;-141.50;100.00;63355.56;5069078;28;20305;-80
2023/09/10 03:14:54;;;;;;;15.05;7.47;;;;;;;-141.50;100.00;63355.56;5061901;28;20201;-79
2023/09/10 03:17:22;;;;;;;13.15;7.03;;;;;;;-141.50;100.00;63355.56;5049785;28;20036;-79
2023/09/10 03:19:49;;;;;;;13.30;7.32;;;;;;;-141.50;100.00;63355.56;5032713;28;20048;-80
2023/09/10 03:22:17;;;;;;;14.48;7.72;;;;;;;-141.50;100.00;63355.56;5054313;28;20112;-80
2023/09/10 03:24:44;;;;;;;13.13;7.88;;;;;;;-141.50;100.00;63355.56;5054273;28;20040;-79
2023/09/10 03:27:11;;;;;;;12.43;7.93;;;;;;;-141.50;100.00;63355.56;5050985;28;20537;-79
2023/09/10 03:29:38;;;;;;;15.35;8.00;;;;;;;-141.50;100.00;63355.56;5068723;28;20033;-79
2023/09/10 03:32:08;;;;;;;13.20;7.68;;;;;;;-141.50;100.00;63355.56;5052712;28;20049;-79
2023/09/10 03:34:36;;;;;;;12.93;7.53;;;;;;;-141.50;100.00;63355.56;5048770;28;20057;-80
2023/09/10 03:37:06;;;;;;;13.93;8.18;;;;;;;-141.50;100.00;63355.56;5047992;28;20064;-78
2023/09/10 03:39:33;;;;;;;15.00;7.82;;;;;;;-141.50;100.00;63355.56;5048106;28;20053;-79
2023/09/10 03:42:02;;;;;;;13.48;8.02;;;;;;;-141.50;100.00;63355.56;5023698;28;20059;-79
2023/09/10 03:44:29;;;;;;;10.43;6.72;;;;;;;-141.50;100.00;63355.56;5047357;28;20055;-79
2023/09/10 03:46:56;;;;;;;13.15;7.63;;;;;;;-141.50;100.00;63355.56;5040479;28;20045;-79
2023/09/10 03:49:23;;;;;;;12.43;7.40;;;;;;;-141.50;100.00;63355.56;5037514;28;20041;-78
2023/09/10 03:51:53;;;;;;;11.77;7.25;;;;;;;-141.50;100.00;63355.56;5040818;28;20053;-79
2023/09/10 03:54:19;;;;;;;12.82;7.30;;;;;;;-141.50;100.00;63355.56;5042150;28;20525;-79
2023/09/10 03:56:48;;;;;;;14.95;8.00;;;;;;;-141.50;100.00;63355.56;5031092;28;20041;-79
2023/09/10 03:59:15;;;;;;;13.00;7.13;;;;;;;-141.50;100.00;63355.56;5047302;28;20045;-79
2023/09/10 04:01:42;;;;;;;13.27;7.25;;;;;;;-141.50;100.00;63355.56;5044807;28;20075;-79
2023/09/10 04:04:09;;;;;;;14.55;7.97;;;;;;;-141.50;100.00;63355.56;5061185;28;20064;-79
2023/09/10 04:06:36;;;;;;;12.48;7.38;;;;;;;-141.50;100.00;63355.56;5043396;28;20296;-79
2023/09/10 04:09:03;;;;;;;12.38;7.13;;;;;;;-141.50;100.00;63355.56;5047338;28;20060;-78
2023/09/10 04:11:30;;;;;;;12.48;7.13;;;;;;;-141.50;100.00;63355.56;5066929;28;20407;-79
2023/09/10 04:13:58;;;;;;;11.38;6.82;;;;;;;-141.50;100.00;63355.56;5047334;28;20070;-78
2023/09/10 04:16:26;;;;;;;11.13;6.32;;;;;;;-141.50;100.00;63355.56;5064928;28;20041;-78
2023/09/10 04:18:53;;;;;;;11.23;6.97;;;;;;;-141.50;100.00;63355.56;5038644;28;20075;-78
2023/09/10 04:21:20;;;;;;;11.25;6.70;;;;;;;-141.50;100.00;63355.56;5027272;28;20053;-78
2023/09/10 04:23:47;;;;;;;13.07;7.13;;;;;;;-141.50;100.00;63355.56;5053457;28;20134;-78
2023/09/10 04:26:14;;;;;;;11.35;7.05;;;;;;;-141.50;100.00;63355.56;5053411;28;20438;-79
2023/09/10 04:28:41;;;;;;;13.25;7.00;;;;;;;-141.50;100.00;63355.56;5026381;28;20049;-78
2023/09/10 04:31:14;;;;;;;14.55;7.30;;;;;;;-141.50;100.00;63355.56;5040980;28;20048;-79
2023/09/10 04:33:41;;;;;;;12.35;7.25;;;;;;;-141.50;100.00;63355.56;5045438;28;20041;-78
2023/09/10 04:36:08;;;;;;;12.55;6.85;;;;;;;-141.50;100.00;63355.56;5047188;28;20045;-78
2023/09/10 04:38:38;;;;;;;12.15;7.15;;;;;;;-141.50;100.00;63355.56;5047770;28;20065;-79
2023/09/10 04:41:05;;;;;;;16.13;7.78;;;;;;;-141.50;100.00;63355.56;5044982;28;20071;-79
2023/09/10 04:43:32;;;;;;;11.98;7.05;;;;;;;-141.50;100.00;63355.56;5051277;28;20040;-79
2023/09/10 04:45:59;;;;;;;11.45;6.70;;;;;;;-141.50;100.00;63355.56;5048928;28;20052;-79
2023/09/10 04:48:26;;;;;;;14.05;7.13;;;;;;;-141.50;100.00;63355.56;5049007;28;20083;-80
2023/09/10 04:50:54;;;;;;;13.52;7.43;;;;;;;-141.50;100.00;63355.56;5060402;28;20040;-79
2023/09/10 04:53:20;;;;;;;16.52;7.90;;;;;;;-141.50;100.00;63355.56;5034552;28;20045;-79
2023/09/10 04:55:56;;;;;;;11.02;6.35;;;;;;;-141.50;100.00;63355.56;5062483;28;20037;-79
2023/09/10 04:58:24;;;;;;;12.20;6.90;;;;;;;-141.50;100.00;63355.56;5049246;28;20072;-78
2023/09/10 05:00:51;;;;;;;12.00;7.32;;;;;;;-141.50;100.00;63355.56;5049261;28;20037;-78
2023/09/10 05:03:21;;;;;;;13.55;7.13;;;;;;;-141.50;100.00;63355.56;5062651;28;20054;-78
2023/09/10 05:05:56;;;;;;;11.20;7.07;;;;;;;-141.50;100.00;63355.56;5048671;28;20065;-79
2023/09/10 05:08:22;;;;;;;14.80;7.00;;;;;;;-141.50;100.00;63355.56;5026493;28;20037;-80
2023/09/10 05:10:49;;;;;;;10.60;6.18;;;;;;;-141.50;100.00;63355.56;5040033;28;20069;-78
2023/09/10 05:13:16;;;;;;;11.77;6.90;;;;;;;-141.50;100.00;63355.56;5044799;28;20060;-79
2023/09/10 05:15:48;;;;;;;14.68;7.47;;;;;;;-141.50;100.00;63355.56;5048237;28;20074;-78
2023/09/10 05:18:15;;;;;;;10.88;7.05;;;;;;;-141.50;100.00;63355.56;5046089;28;20064;-80
2023/09/10 05:20:43;;;;;;;12.18;6.95;;;;;;;-141.50;100.00;63355.56;5038469;28;20045;-78
2023/09/10 05:23:10;;;;;;;14.75;7.63;;;;;;;-141.50;100.00;63355.56;5035956;28;20072;-79
2023/09/10 05:25:37;;;;;;;10.45;6.82;;;;;;;-141.50;100.00;63355.56;5056875;28;20109;-79
2023/09/10 05:28:04;;;;;;;15.07;7.95;;;;;;;-141.50;100.00;63355.56;5039850;28;21039;-78
2023/09/10 05:30:31;;;;;;;12.73;7.60;;;;;;;-141.50;100.00;63355.56;5040199;28;20061;-79
2023/09/10 05:32:58;;;;;;;13.00;7.15;;;;;;;-141.50;100.00;63355.56;5044594;28;20763;-79
2023/09/10 05:35:25;;;;;;;12.98;7.43;;;;;;;-141.50;100.00;63355.56;5028794;28;20045;-79
2023/09/10 05:37:52;;;;;;;14.40;7.70;;;;;;;-141.50;100.00;63355.56;5043870;28;20048;-80
2023/09/10 05:40:19;;;;;;;13.98;7.05;;;;;;;-141.50;100.00;63355.56;5043341;28;20048;-79
2023/09/10 05:42:46;;;;;;;15.68;8.07;;;;;;;-141.50;100.00;63355.56;5042056;28;20037;-79
2023/09/10 05:45:12;;;;;;;12.68;7.55;;;;;;;-141.50;100.00;63355.56;5033543;28;20060;-80
2023/09/10 05:47:39;;;;;;;14.25;7.78;;;;;;;-141.50;100.00;63355.56;5035197;28;20048;-79
2023/09/10 05:50:06;;;;;;;12.93;7.32;;;;;;;-141.50;100.00;63355.56;5045980;28;20052;-81
2023/09/10 05:52:35;;;;;;;12.85;7.55;;;;;;;-141.50;100.00;63355.56;5006505;28;20059;-79
2023/09/10 05:55:03;;;;;;;11.43;7.30;;;;;;;-141.50;100.00;63355.56;5030420;28;20122;-80
2023/09/10 05:57:30;;;;;;;13.30;7.28;;;;;;;-141.50;100.00;63355.56;5024118;28;20050;-82
2023/09/10 05:59:57;;;;;;;12.80;7.88;;;;;;;-141.50;100.00;63355.56;5028069;28;20056;-81
2023/09/10 06:02:26;;;;;;;13.50;8.02;;;;;;;-141.50;100.00;63355.56;5041030;28;20112;-81
2023/09/10 06:04:54;;;;;;;12.70;7.72;;;;;;;-141.50;100.00;63355.56;5040409;28;20080;-80
2023/09/10 06:07:21;;;;;;;12.13;6.80;;;;;;;-141.50;100.00;63355.56;5040671;28;20052;-81
2023/09/10 06:09:49;;;;;;;11.63;6.97;;;;;;;-141.50;100.00;63355.56;5039061;28;20079;-79
2023/09/10 06:12:16;;;;;;;14.55;6.95;;;;;;;-141.50;100.00;63355.56;5019728;28;20073;-79
2023/09/10 06:14:43;;;;;;;14.45;7.57;;;;;;;-141.50;100.00;63355.56;4991166;28;20053;-81
2023/09/10 06:17:09;;;;;;;12.75;7.55;;;;;;;-141.50;100.00;63355.56;5030583;28;20667;-81
2023/09/10 06:19:36;;;;;;;11.98;7.30;;;;;;;-141.50;100.00;63355.56;5053216;28;20057;-80
2023/09/10 06:22:03;;;;;;;13.75;7.43;;;;;;;-141.50;100.00;63355.56;5038778;28;20604;-80
2023/09/10 06:24:33;;;;;;;13.77;7.63;;;;;;;-141.50;100.00;63355.56;5010288;28;20102;-79
2023/09/10 06:27:00;;;;;;;14.77;7.95;;;;;;;-141.50;100.00;63355.56;5029378;28;20937;-80
2023/09/10 06:29:27;;;;;;;9.43;6.45;;;;;;;-141.50;100.00;63355.56;5018086;28;20045;-81
2023/09/10 06:31:54;;;;;;;11.65;6.72;;;;;;;-141.50;100.00;63355.56;5024509;28;20049;-80
2023/09/10 06:34:21;;;;;;;11.60;7.10;;;;;;;-141.50;100.00;63355.56;5026945;28;20064;-79
2023/09/10 06:36:48;;;;;;;10.30;6.90;;;;;;;-141.50;100.00;63355.56;5030769;28;20518;-79
2023/09/10 06:39:14;;;;;;;12.73;7.30;;;;;;;-141.50;100.00;63355.56;5029489;28;20840;-78
2023/09/10 06:41:41;;;;;;;9.63;6.40;;;;;;;-141.50;100.00;63355.56;5045238;28;20053;-78
2023/09/10 06:44:08;;;;;;;10.38;6.53;;;;;;;-141.50;100.00;63355.56;5030183;28;20071;-77
2023/09/10 06:46:35;;;;;;;11.02;6.97;;;;;;;-141.50;100.00;63355.56;5027963;28;20044;-78
2023/09/10 06:49:02;;;;;;;11.25;6.93;;;;;;;-141.50;100.00;63355.56;5048161;28;20732;-78
2023/09/10 06:51:29;;;;;;;11.95;6.78;;;;;;;-141.50;100.00;63355.56;5048815;28;20068;-78
2023/09/10 06:53:55;;;;;;;10.95;6.70;;;;;;;-141.50;100.00;63355.56;5030863;28;20052;-78
2023/09/10 06:56:25;;;;;;;10.90;6.25;;;;;;;-141.50;100.00;63355.56;5031090;28;20053;-78
2023/09/10 06:58:51;;;;;;;10.18;5.97;;;;;;;-141.50;100.00;63355.56;5023429;28;20407;-78
2023/09/10 07:01:20;;;;;;;11.38;6.93;;;;;;;-141.50;100.00;63355.56;5021818;28;20057;-77
2023/09/10 07:03:52;;;;;;;11.55;6.47;;;;;;;-141.50;100.00;63355.56;5042320;28;20826;-77
2023/09/10 07:06:19;;;;;;;9.73;6.40;;;;;;;-141.50;100.00;63355.56;5032456;28;20561;-77
2023/09/10 07:08:45;;;;;;;9.32;6.05;;;;;;;-141.50;100.00;63355.56;5037626;28;20048;-76
2023/09/10 07:11:12;;;;;;;10.60;5.80;;;;;;;-141.50;100.00;63355.56;5016139;28;20040;-76
2023/09/10 07:13:39;;;;;;;11.48;6.35;;;;;;;-141.50;100.00;63355.56;5033938;28;20103;-77
2023/09/10 07:16:06;;;;;;;9.48;5.68;;;;;;;-141.50;100.00;63355.56;5037572;28;20164;-76
2023/09/10 07:18:33;;;;;;;10.25;5.60;;;;;;;-141.50;100.00;63355.56;5038605;28;20514;-76
2023/09/10 07:21:01;;;;;;;8.40;5.78;;;;;;;-141.50;100.00;63355.56;5038688;28;20056;-76
2023/09/10 07:23:28;;;;;;;10.20;5.25;;;;;;;-141.50;100.00;63355.56;5015333;28;20585;-76
2023/09/10 07:25:55;;;;;;;9.38;5.47;;;;;;;-141.50;100.00;63355.56;5036331;28;20052;-76
2023/09/10 07:28:22;;;;;;;8.55;5.25;;;;;;;-141.50;100.00;63355.56;5017669;28;20048;-75
2023/09/10 07:30:49;;;;;;;10.80;5.35;;;;;;;-141.50;100.00;63355.56;5034974;28;20045;-78
2023/09/10 07:33:16;;;;;;;7.85;4.85;;;;;;;-141.50;100.00;63355.56;5039803;28;20045;-76
2023/09/10 07:35:43;;;;;;;8.10;4.72;;;;;;;-141.50;100.00;63355.56;5043291;28;20049;-77
2023/09/10 07:38:09;;;;;;;9.00;5.15;;;;;;;-141.50;100.00;63355.56;5062895;28;20566;-82
2023/09/10 07:40:36;;;;;;;8.35;4.97;;;;;;;-141.50;100.00;63355.56;5033370;28;20102;-77
2023/09/10 07:43:03;;;;;;;7.35;4.47;;;;;;;-141.50;100.00;63355.56;5059094;28;20164;-81
2023/09/10 07:45:30;;;;;;;6.80;4.78;;;;;;;-141.50;100.00;63355.56;5046642;28;20041;-83
2023/09/10 07:47:57;;;;;;;8.38;4.88;;;;;;;-141.50;100.00;63355.56;5064887;28;20052;-82
2023/09/10 07:50:24;;;;;;;8.27;5.05;;;;;;;-141.50;100.00;63355.56;5044810;28;20041;-84
2023/09/10 07:52:51;;;;;;;9.95;5.07;;;;;;;-141.50;100.00;63355.56;5049439;28;20099;-84
2023/09/10 07:55:18;;;;;;;7.22;4.43;;;;;;;-141.50;100.00;63355.56;5066756;28;20128;-83
2023/09/10 07:57:44;;;;;;;6.65;4.53;;;;;;;-141.50;100.00;63355.56;5043143;28;20060;-84
2023/09/10 08:00:12;;;;;;;6.43;4.28;;;;;;;-141.50;100.00;63355.56;5062792;28;20135;-80
2023/09/10 08:02:39;;;;;;;7.10;4.25;;;;;;;-141.50;100.00;63355.56;5027629;28;20837;-80
2023/09/10 08:05:06;;;;;;;7.57;4.32;;;;;;;-141.50;100.00;63355.56;5030638;28;20055;-78
2023/09/10 08:07:33;;;;;;;7.80;4.57;;;;;;;-141.50;100.00;63355.56;5048814;28;20048;-79
2023/09/10 08:10:01;;;;;;;7.13;4.10;;;;;;;-141.50;100.00;63355.56;5030771;28;20049;-78
2023/09/10 08:12:28;;;;;;;7.38;4.00;;;;;;;-141.50;100.00;63355.56;5048982;28;20056;-79
2023/09/10 08:14:54;;;;;;;6.43;4.05;;;;;;;-141.50;100.00;63355.56;5049954;28;20046;-80
2023/09/10 08:17:21;;;;;;;8.65;3.72;;;;;;;-141.50;100.00;63355.56;5031298;28;20053;-79
2023/09/10 08:19:48;;;;;;;9.43;4.00;;;;;;;-141.50;100.00;63355.56;5009140;28;20125;-80
2023/09/10 08:22:16;;;;;;;5.18;3.58;;;;;;;-141.50;100.00;63355.56;5041820;28;20060;-81
2023/09/10 08:24:43;;;;;;;5.45;3.53;;;;;;;-141.50;100.00;63355.56;5008833;28;20053;-82
2023/09/10 08:27:13;;;;;;;5.35;3.55;;;;;;;-141.50;100.00;63355.56;5038849;28;20518;-80
2023/09/10 08:29:40;;;;;;;6.82;3.35;;;;;;;-141.50;100.00;63355.56;5042512;28;20067;-81
2023/09/10 08:32:06;;;;;;;5.45;3.33;;;;;;;-141.50;100.00;63355.56;5030240;28;20068;-81
2023/09/10 08:34:33;;;;;;;6.28;3.75;;;;;;;-141.50;100.00;63355.56;5029129;28;20049;-80
2023/09/10 08:37:02;;;;;;;6.00;3.60;;;;;;;-141.50;100.00;63355.56;5033047;28;20055;-79
2023/09/10 08:39:29;;;;;;;4.78;3.38;;;;;;;-141.50;100.00;63355.56;5047886;28;20045;-79
2023/09/10 08:42:03;;;;;;;5.65;3.30;;;;;;;-141.50;100.00;63355.56;5044671;28;20302;-78
2023/09/10 08:44:30;;;;;;;4.75;3.28;;;;;;;-141.50;100.00;63355.56;5029987;28;20810;-77
2023/09/10 08:47:01;;;;;;;6.38;3.72;;;;;;;-141.50;100.00;63355.56;5049419;28;20727;-78
2023/09/10 08:49:34;;;;;;;5.75;3.38;;;;;;;-141.50;100.00;63355.56;5037998;28;20651;-78
2023/09/10 08:52:02;;;;;;;6.20;3.70;;;;;;;-141.50;100.00;63355.56;5017823;28;20056;-78
2023/09/10 08:54:29;;;;;;;5.75;3.80;;;;;;;-141.50;100.00;63355.56;5030882;28;20049;-78
2023/09/10 08:56:56;;;;;;;6.88;3.35;;;;;;;-141.50;100.00;63355.56;5052509;28;20136;-78
2023/09/10 08:59:23;;;;;;;6.00;3.63;;;;;;;-141.50;100.00;63355.56;5035038;28;20054;-78
2023/09/10 09:01:51;;;;;;;6.93;3.30;;;;;;;-141.50;100.00;63355.56;5024569;28;20136;-79
2023/09/10 09:04:18;;;;;;;7.18;3.80;;;;;;;-141.50;100.00;63355.56;5052721;28;20045;-77
2023/09/10 09:06:51;;;;;;;5.28;3.42;;;;;;;-141.50;100.00;63355.56;5053435;28;20057;-78
2023/09/10 09:09:22;;;;;;;5.50;3.65;;;;;;;-141.50;100.00;63355.56;5051620;28;20135;-78
2023/09/10 09:11:51;;;;;;;6.10;3.60;;;;;;;-141.50;100.00;63355.56;5010952;28;20060;-78
2023/09/10 09:14:20;;;;;;;6.53;3.40;;;;;;;-141.50;100.00;63355.56;5053286;28;20049;-77
2023/09/10 09:16:47;;;;;;;5.75;3.50;;;;;;;-141.50;100.00;63355.56;5050016;28;20367;-77
2023/09/10 09:19:17;;;;;;;4.63;2.97;;;;;;;-141.50;100.00;63355.56;5033321;28;20052;-79
2023/09/10 09:21:49;;;;;;;5.88;3.22;;;;;;;-141.50;100.00;63355.56;5027273;28;20426;-75
2023/09/10 09:24:16;;;;;;;4.88;3.25;;;;;;;-141.50;100.00;63355.56;5047216;28;20060;-76
2023/09/10 09:26:44;;;;;;;6.13;3.55;;;;;;;-141.50;100.00;63355.56;5045583;28;20052;-78
2023/09/10 09:29:11;;;;;;;5.22;3.30;;;;;;;-141.50;100.00;63355.56;5052685;28;20597;-78
2023/09/10 09:31:38;;;;;;;4.35;3.22;;;;;;;-141.50;100.00;63355.56;5051928;28;20123;-78
2023/09/10 09:34:04;;;;;;;4.82;3.08;;;;;;;-141.50;100.00;63355.56;5029630;28;20049;-78
2023/09/10 09:36:36;;;;;;;4.10;2.95;;;;;;;-141.50;100.00;63355.56;5027023;28;20052;-80
2023/09/10 09:39:07;;;;;;;4.95;3.00;;;;;;;-141.50;100.00;63355.56;5043016;28;20616;-80
2023/09/10 09:41:35;;;;;;;3.83;2.65;;;;;;;-141.50;100.00;63355.56;5028244;28;21445;-79
2023/09/10 09:44:03;;;;;;;5.70;3.00;;;;;;;-141.50;100.00;63355.56;5024731;28;20061;-80
2023/09/10 09:46:34;;;;;;;5.13;3.10;;;;;;;-141.50;100.00;63355.56;5044916;28;20045;-79
2023/09/10 09:49:01;;;;;;;5.03;3.20;;;;;;;-141.50;100.00;63355.56;5046166;28;21039;-80
2023/09/10 09:51:28;;;;;;;4.28;2.80;;;;;;;-141.50;100.00;63355.56;5060319;28;20053;-80
2023/09/10 09:53:55;;;;;;;4.93;2.92;;;;;;;-141.50;100.00;63355.56;5046636;28;20292;-81
2023/09/10 09:56:22;;;;;;;5.10;3.15;;;;;;;-141.50;100.00;63355.56;5033580;28;20121;-80
2023/09/10 09:58:48;;;;;;;5.18;3.00;;;;;;;-141.50;100.00;63355.56;5041939;28;20060;-80
2023/09/10 10:01:15;;;;;;;4.18;3.10;;;;;;;-141.50;100.00;63355.56;5043337;28;20049;-80
2023/09/10 10:03:42;;;;;;;4.53;2.83;;;;;;;-141.50;100.00;63355.56;5027250;28;20257;-80
2023/09/10 10:06:09;;;;;;;3.67;2.78;;;;;;;-141.50;100.00;63355.56;5060915;28;20049;-80
2023/09/10 10:08:37;;;;;;;4.35;3.10;;;;;;;-141.50;100.00;63355.56;5059730;28;20083;-78
2023/09/10 10:11:04;;;;;;;5.15;3.58;;;;;;;-141.50;100.00;63355.56;5037036;28;20338;-80
2023/09/10 10:13:33;;;;;;;4.55;2.85;;;;;;;-141.50;100.00;63355.56;5041526;28;20049;-80
2023/09/10 10:16:01;;;;;;;6.40;3.53;;;;;;;-141.50;100.00;63355.56;5036004;28;20683;-81
2023/09/10 10:18:28;;;;;;;4.53;3.00;;;;;;;-141.50;100.00;63355.56;5037784;28;20098;-80
2023/09/10 10:20:58;;;;;;;4.22;2.63;;;;;;;-141.50;100.00;63355.56;5046237;28;20064;-80
2023/09/10 10:23:25;;;;;;;4.68;3.00;;;;;;;-141.50;100.00;63355.56;5037320;28;20114;-79
2023/09/10 10:25:53;;;;;;;4.30;2.95;;;;;;;-141.50;100.00;63355.56;5054642;28;20132;-80
2023/09/10 10:28:21;;;;;;;3.78;3.13;;;;;;;-141.50;100.00;63355.56;5054972;28;20075;-80
2023/09/10 10:31:15;;;;;;;3.42;2.75;;;;;;;-141.50;100.00;63355.56;5051219;28;20052;-80
2023/09/10 10:33:50;;;;;;;5.72;2.85;;;;;;;-141.50;100.00;63355.56;5052337;28;21095;-79
2023/09/10 10:36:56;;;;;;;3.90;2.70;;;;;;;-141.50;100.00;63355.56;5051183;28;20408;-79
2023/09/10 10:39:32;;;;;;;4.15;2.80;;;;;;;-141.50;100.00;63355.56;4994394;28;20555;-79
2023/09/10 10:42:02;;;;;;;5.72;3.35;;;;;;;-141.50;100.00;63355.56;5047542;28;20103;-79
2023/09/10 10:44:34;;;;;;;4.40;3.15;;;;;;;-141.50;100.00;63355.56;5034622;28;20046;-80
2023/09/10 10:47:21;;;;;;;4.28;3.15;;;;;;;-141.50;100.00;63355.56;5035867;28;20087;-80
2023/09/10 10:49:53;;;;;;;6.55;3.20;;;;;;;-141.50;100.00;63355.56;5030449;28;20448;-80
2023/09/10 10:52:30;;;;;;;3.47;2.80;;;;;;;-141.50;100.00;63355.56;5038685;28;20053;-78
2023/09/10 10:54:58;;;;;;;3.83;2.80;;;;;;;-141.50;100.00;63355.56;5055830;28;20053;-78
2023/09/10 10:57:27;;;;;;;3.92;2.85;;;;;;;-141.50;100.00;63355.56;5032107;28;20037;-78
2023/09/10 10:59:54;;;;;;;5.13;3.35;;;;;;;-141.50;100.00;63355.56;5021724;28;20049;-78
2023/09/10 11:02:23;;;;;;;4.70;3.28;;;;;;;-141.50;100.00;63355.56;5035570;28;20055;-78
2023/09/10 11:05:08;;;;;;;4.00;2.95;;;;;;;-141.50;100.00;63355.56;5037206;28;20519;-79
2023/09/10 11:07:35;;;;;;;4.00;2.83;;;;;;;-141.50;100.00;63355.56;5033518;28;20048;-78
2023/09/10 11:10:24;;;;;;;6.90;3.38;;;;;;;-141.50;100.00;63355.56;5054776;28;20060;-79